createdAt,value
2023-02-19T00:00:36.567Z,77.14
2023-02-19T00:03:05.451Z,77.06
2023-02-19T00:05:36.612Z,77.25
2023-02-19T00:08:05.606Z,77.26
2023-02-19T00:10:34.371Z,77.09
2023-02-19T00:13:03.233Z,77.16
2023-02-19T00:15:35.639Z,76.82
2023-02-19T00:18:04.352Z,77.31
2023-02-19T00:20:32.986Z,77.16
2023-02-19T00:23:01.598Z,77.35
2023-02-19T00:25:30.168Z,77.25
2023-02-19T00:27:58.811Z,77.47
2023-02-19T00:30:27.453Z,77.42
2023-02-19T00:32:57.914Z,77.55
2023-02-19T00:35:26.506Z,77.96
2023-02-19T00:37:55.074Z,78.09
2023-02-19T00:40:26.110Z,78.17
2023-02-19T00:42:55.424Z,78.34
2023-02-19T00:45:24.132Z,78.30
2023-02-19T00:47:52.800Z,78.35
2023-02-19T00:50:22.996Z,78.46
2023-02-19T00:52:51.666Z,78.46
2023-02-19T00:55:20.480Z,78.50
2023-02-19T00:57:49.742Z,78.65
2023-02-19T01:00:18.694Z,78.77
2023-02-19T01:02:47.417Z,78.98
2023-02-19T01:05:16.578Z,79.04
2023-02-19T01:07:46.654Z,79.02
2023-02-19T01:10:15.428Z,79.63
2023-02-19T01:12:44.212Z,79.62
2023-02-19T01:15:12.981Z,79.42
2023-02-19T01:17:41.706Z,79.70
2023-02-19T01:20:11.530Z,79.85
2023-02-19T01:22:40.247Z,80.00
2023-02-19T01:25:10.831Z,79.87
2023-02-19T01:27:39.415Z,80.13
2023-02-19T01:30:09.434Z,79.98
2023-02-19T01:32:38.220Z,79.87
2023-02-19T01:35:07.935Z,80.12
2023-02-19T01:37:37.340Z,80.22
2023-02-19T01:40:07.025Z,80.44
2023-02-19T01:42:37.031Z,80.31
2023-02-19T01:45:30.647Z,80.29
2023-02-19T01:48:11.682Z,80.31
2023-02-19T01:50:47.082Z,80.24
2023-02-19T01:53:23.082Z,80.17
2023-02-19T01:55:57.374Z,80.14
2023-02-19T01:58:34.858Z,79.89
2023-02-19T02:01:07.305Z,80.04
2023-02-19T02:03:39.487Z,80.11
2023-02-19T02:06:18.358Z,80.08
2023-02-19T02:09:04.184Z,79.95
2023-02-19T02:11:33.395Z,79.79
2023-02-19T02:14:05.029Z,79.91
2023-02-19T02:16:50.431Z,79.88
2023-02-19T02:19:45.096Z,79.93
2023-02-19T02:22:22.331Z,80.11
2023-02-19T02:25:28.925Z,80.23
2023-02-19T02:28:23.396Z,80.33
2023-02-19T02:30:58.171Z,80.47
2023-02-19T02:33:39.742Z,80.54
2023-02-19T02:36:16.092Z,80.71
2023-02-19T02:38:48.625Z,80.59
2023-02-19T02:41:18.354Z,80.76
2023-02-19T02:43:46.998Z,80.87
2023-02-19T02:46:27.400Z,80.87
2023-02-19T02:49:01.324Z,80.77
2023-02-19T02:51:36.898Z,80.42
2023-02-19T02:54:30.428Z,80.40
2023-02-19T02:57:03.369Z,80.52
2023-02-19T02:59:41.427Z,80.70
2023-02-19T03:02:21.569Z,80.70
2023-02-19T03:05:16.371Z,80.79
2023-02-19T03:07:53.683Z,80.98
2023-02-19T03:10:30.553Z,81.14
2023-02-19T03:13:19.927Z,81.20
2023-02-19T03:16:17.041Z,81.20
2023-02-19T03:19:10.280Z,81.36
2023-02-19T03:21:42.735Z,81.17
2023-02-19T03:24:33.429Z,81.32
2023-02-19T03:27:08.603Z,81.45
2023-02-19T03:29:45.969Z,81.40
2023-02-19T03:32:23.242Z,81.43
2023-02-19T03:35:01.050Z,81.22
2023-02-19T03:37:40.139Z,81.41
2023-02-19T03:40:10.647Z,81.36
2023-02-19T03:42:51.191Z,81.41
2023-02-19T03:45:36.463Z,81.53
2023-02-19T03:48:24.409Z,81.28
2023-02-19T03:51:09.938Z,81.47
2023-02-19T03:53:55.102Z,81.34
2023-02-19T03:56:35.696Z,81.56
2023-02-19T03:59:16.566Z,81.60
2023-02-19T04:01:52.674Z,81.62
2023-02-19T04:04:30.292Z,81.62
2023-02-19T04:07:05.120Z,81.63
2023-02-19T04:09:42.725Z,81.59
2023-02-19T04:12:18.009Z,81.75
2023-02-19T04:14:54.765Z,81.87
2023-02-19T04:17:30.821Z,81.75
2023-02-19T04:20:03.989Z,81.66
2023-02-19T04:22:35.642Z,81.80
2023-02-19T04:25:04.973Z,81.74
2023-02-19T04:27:34.953Z,81.79
2023-02-19T04:30:03.701Z,81.75
2023-02-19T04:32:32.878Z,81.59
2023-02-19T04:35:01.544Z,81.63
2023-02-19T04:37:30.354Z,81.48
2023-02-19T04:40:00.390Z,81.67
2023-02-19T04:42:29.775Z,81.52
2023-02-19T04:45:00.483Z,81.45
2023-02-19T04:47:29.139Z,81.62
2023-02-19T04:50:00.197Z,81.93
2023-02-19T04:52:29.024Z,81.72
2023-02-19T04:54:59.079Z,81.91
2023-02-19T04:57:27.757Z,81.99
2023-02-19T04:59:56.664Z,81.83
2023-02-19T05:02:26.107Z,81.74
2023-02-19T05:04:55.206Z,81.73
2023-02-19T05:07:25.903Z,81.81
2023-02-19T05:09:56.858Z,81.81
2023-02-19T05:12:27.493Z,81.81
2023-02-19T05:14:58.648Z,81.79
2023-02-19T05:17:28.636Z,81.85
2023-02-19T05:19:57.859Z,81.93
2023-02-19T05:22:26.566Z,81.99
2023-02-19T05:24:55.180Z,81.76
2023-02-19T05:27:24.000Z,81.86
2023-02-19T05:29:54.059Z,81.64
2023-02-19T05:32:22.780Z,81.76
2023-02-19T05:34:52.919Z,82.02
2023-02-19T05:37:21.640Z,81.93
2023-02-19T05:39:50.704Z,81.77
2023-02-19T05:42:19.473Z,82.00
2023-02-19T05:44:48.295Z,81.98
2023-02-19T05:47:18.280Z,81.84
2023-02-19T05:49:46.910Z,81.77
2023-02-19T05:52:15.539Z,81.76
2023-02-19T05:54:44.209Z,81.73
2023-02-19T05:57:14.025Z,81.64
2023-02-19T05:59:42.728Z,81.57
2023-02-19T06:02:11.620Z,81.60
2023-02-19T06:04:41.655Z,81.41
2023-02-19T06:07:10.755Z,81.30
2023-02-19T06:09:39.394Z,81.20
2023-02-19T06:12:09.249Z,81.28
2023-02-19T06:14:37.996Z,81.44
2023-02-19T06:17:06.611Z,81.23
2023-02-19T06:19:35.225Z,81.22
2023-02-19T06:22:05.308Z,81.31
2023-02-19T06:24:34.378Z,81.19
2023-02-19T06:27:03.025Z,81.29
2023-02-19T06:29:32.584Z,81.14
2023-02-19T06:32:01.419Z,81.09
2023-02-19T06:34:30.072Z,81.23
2023-02-19T06:36:59.791Z,81.24
2023-02-19T06:39:30.439Z,81.19
2023-02-19T06:42:01.692Z,81.00
2023-02-19T06:44:30.433Z,80.68
2023-02-19T06:46:59.333Z,81.35
2023-02-19T06:49:29.901Z,81.77
2023-02-19T06:52:02.050Z,81.63
2023-02-19T06:54:34.770Z,81.14
2023-02-19T06:57:12.917Z,80.80
2023-02-19T06:59:56.689Z,80.62
2023-02-19T07:02:25.513Z,80.49
2023-02-19T07:04:54.504Z,80.30
2023-02-19T07:07:23.774Z,80.11
2023-02-19T07:09:56.371Z,79.94
2023-02-19T07:12:25.250Z,80.14
2023-02-19T07:14:53.861Z,80.38
2023-02-19T07:17:24.486Z,80.44
2023-02-19T07:19:53.486Z,80.33
2023-02-19T07:22:22.155Z,79.85
2023-02-19T07:24:53.870Z,80.02
2023-02-19T07:27:22.486Z,79.88
2023-02-19T07:29:51.100Z,79.30
2023-02-19T07:32:19.720Z,79.35
2023-02-19T07:34:49.623Z,79.57
2023-02-19T07:37:18.224Z,79.30
2023-02-19T07:39:47.551Z,79.31
2023-02-19T07:42:17.880Z,79.18
2023-02-19T07:44:46.514Z,78.86
2023-02-19T07:47:15.116Z,78.77
2023-02-19T07:49:43.745Z,78.94
2023-02-19T07:52:13.963Z,78.83
2023-02-19T07:54:42.640Z,78.64
2023-02-19T07:57:11.816Z,78.53
2023-02-19T07:59:41.869Z,77.95
2023-02-19T08:02:34.986Z,77.20
2023-02-19T08:05:03.814Z,76.65
2023-02-19T08:07:33.942Z,76.56
2023-02-19T08:10:16.852Z,76.01
2023-02-19T08:13:03.054Z,76.20
2023-02-19T08:15:34.502Z,76.25
2023-02-19T08:18:03.238Z,75.94
2023-02-19T08:20:31.976Z,75.50
2023-02-19T08:23:00.654Z,74.65
2023-02-19T08:25:29.301Z,74.85
2023-02-19T08:27:57.935Z,74.65
2023-02-19T08:30:26.759Z,74.68
2023-02-19T08:32:57.317Z,74.57
2023-02-19T08:35:25.975Z,74.52
2023-02-19T08:37:58.242Z,74.40
2023-02-19T08:40:29.984Z,74.42
2023-02-19T08:43:06.362Z,75.04
2023-02-19T08:45:35.227Z,75.17
2023-02-19T08:48:06.227Z,74.40
2023-02-19T08:50:35.513Z,73.97
2023-02-19T08:53:06.176Z,73.73
2023-02-19T08:55:35.403Z,73.34
2023-02-19T08:58:05.451Z,72.36
2023-02-19T09:03:24.977Z,72.57
2023-02-19T09:05:54.242Z,72.63
2023-02-19T09:08:22.852Z,72.22
2023-02-19T09:11:00.631Z,72.17
2023-02-19T09:13:29.765Z,72.37
2023-02-19T09:15:58.537Z,72.33
2023-02-19T09:18:28.626Z,71.87
2023-02-19T09:21:01.330Z,71.76
2023-02-19T09:23:30.174Z,71.67
2023-02-19T09:26:01.675Z,71.91
2023-02-19T09:28:33.975Z,71.86
2023-02-19T09:31:07.840Z,71.64
2023-02-19T09:33:40.075Z,71.47
2023-02-19T09:36:11.570Z,71.71
2023-02-19T09:38:40.843Z,71.90
2023-02-19T09:41:19.929Z,72.06
2023-02-19T09:43:51.685Z,71.82
2023-02-19T09:46:32.636Z,71.79
2023-02-19T09:49:09.299Z,71.93
2023-02-19T09:51:43.192Z,71.75
2023-02-19T09:54:25.352Z,71.63
2023-02-19T09:56:59.215Z,72.45
2023-02-19T09:59:33.016Z,72.22
2023-02-19T10:02:06.844Z,72.12
2023-02-19T10:04:37.120Z,71.85
2023-02-19T10:07:08.480Z,72.00
2023-02-19T10:09:38.990Z,72.06
2023-02-19T10:12:17.532Z,72.23
2023-02-19T10:14:51.545Z,72.00
2023-02-19T10:17:27.084Z,72.16
2023-02-19T10:19:59.331Z,72.23
2023-02-19T10:22:28.422Z,72.35
2023-02-19T10:24:58.170Z,72.43
2023-02-19T10:27:31.023Z,72.53
2023-02-19T10:30:02.115Z,72.71
2023-02-19T10:32:32.812Z,72.87
2023-02-19T10:35:14.766Z,72.93
2023-02-19T10:37:46.310Z,72.56
2023-02-19T10:40:21.835Z,72.77
2023-02-19T10:42:54.295Z,72.82
2023-02-19T10:45:27.046Z,72.00
2023-02-19T10:48:00.198Z,72.33
2023-02-19T10:50:39.380Z,72.70
2023-02-19T10:53:24.873Z,72.40
2023-02-19T10:56:09.635Z,71.58
2023-02-19T10:58:40.304Z,71.63
2023-02-19T11:01:20.772Z,71.94
2023-02-19T11:03:51.420Z,71.50
2023-02-19T11:06:28.091Z,71.26
2023-02-19T11:09:00.608Z,71.68
2023-02-19T11:11:36.277Z,71.45
2023-02-19T11:14:15.603Z,71.02
2023-02-19T11:16:48.924Z,70.83
2023-02-19T11:19:40.178Z,70.96
2023-02-19T11:22:33.284Z,71.30
2023-02-19T11:25:25.512Z,71.01
2023-02-19T11:28:08.257Z,71.35
2023-02-19T11:30:41.174Z,71.45
2023-02-19T11:33:27.288Z,70.98
2023-02-19T11:36:18.005Z,70.94
2023-02-19T11:38:48.402Z,70.84
2023-02-19T11:41:30.280Z,70.83
2023-02-19T11:44:25.868Z,71.12
2023-02-19T11:47:24.104Z,71.20
2023-02-19T11:50:04.008Z,71.56
2023-02-19T11:52:41.979Z,71.83
2023-02-19T11:55:23.188Z,72.02
2023-02-19T11:58:13.067Z,72.38
2023-02-19T12:00:52.058Z,72.44
2023-02-19T12:04:28.814Z,72.40
2023-02-19T12:07:17.027Z,72.46
2023-02-19T12:10:03.744Z,72.79
2023-02-19T12:12:59.174Z,72.45
2023-02-19T12:15:59.175Z,72.06
2023-02-19T12:19:35.442Z,72.18
2023-02-19T12:22:21.757Z,72.41
2023-02-19T12:25:48.136Z,72.54
2023-02-19T12:29:02.045Z,73.16
2023-02-19T12:32:15.799Z,72.97
2023-02-19T12:35:23.551Z,72.93
2023-02-19T12:38:07.868Z,73.41
2023-02-19T12:41:00.106Z,73.14
2023-02-19T12:43:34.184Z,73.18
2023-02-19T12:46:14.082Z,73.69
2023-02-19T12:48:53.497Z,74.31
2023-02-19T12:51:28.996Z,74.06
2023-02-19T12:54:03.929Z,73.77
2023-02-19T12:56:39.457Z,73.98
2023-02-19T12:59:16.725Z,74.03
2023-02-19T13:01:52.013Z,73.51
2023-02-19T13:04:31.856Z,73.42
2023-02-19T13:07:08.399Z,73.07
2023-02-19T13:09:46.139Z,73.07
2023-02-19T13:12:23.983Z,73.06
2023-02-19T13:15:00.974Z,73.05
2023-02-19T13:17:39.850Z,73.00
2023-02-19T13:20:28.650Z,72.46
2023-02-19T13:23:27.082Z,72.36
2023-02-19T13:26:53.821Z,72.10
2023-02-19T13:29:47.902Z,71.96
2023-02-19T13:32:41.982Z,71.85
2023-02-19T13:35:45.514Z,71.87
2023-02-19T13:38:19.104Z,72.18
2023-02-19T13:40:59.128Z,72.25
2023-02-19T13:43:45.529Z,71.67
2023-02-19T13:46:18.687Z,72.29
2023-02-19T13:48:49.029Z,72.24
2023-02-19T13:51:58.222Z,71.90
2023-02-19T13:54:36.990Z,72.59
2023-02-19T13:57:35.992Z,73.02
2023-02-19T14:00:52.086Z,72.72
2023-02-19T14:03:40.350Z,72.40
2023-02-19T14:06:11.674Z,72.21
2023-02-19T14:08:57.174Z,72.64
2023-02-19T14:12:03.814Z,72.74
2023-02-19T14:14:37.994Z,73.85
2023-02-19T14:17:29.138Z,74.80
2023-02-19T14:20:04.476Z,74.85
2023-02-19T14:23:10.505Z,74.89
2023-02-19T14:25:58.479Z,75.49
2023-02-19T14:28:44.464Z,75.50
2023-02-19T14:31:23.511Z,76.15
2023-02-19T14:33:57.234Z,75.92
2023-02-19T14:36:39.825Z,76.47
2023-02-19T14:39:17.601Z,77.21
2023-02-19T14:41:51.007Z,77.56
2023-02-19T14:44:25.121Z,77.52
2023-02-19T14:47:00.160Z,77.47
2023-02-19T14:49:36.136Z,78.16
2023-02-19T14:52:16.070Z,78.16
2023-02-19T14:54:54.395Z,78.44
2023-02-19T14:57:30.036Z,78.62
2023-02-19T15:00:01.251Z,78.76
2023-02-19T15:02:43.752Z,78.92
2023-02-19T15:05:17.275Z,79.32
2023-02-19T15:07:49.107Z,79.70
2023-02-19T15:10:20.182Z,79.87
2023-02-19T15:12:55.963Z,79.89
2023-02-19T15:15:32.793Z,80.22
2023-02-19T15:18:03.951Z,79.99
2023-02-19T15:20:40.614Z,80.15
2023-02-19T15:23:09.786Z,80.22
2023-02-19T15:25:41.106Z,80.53
2023-02-19T15:28:33.750Z,80.39
2023-02-19T15:31:25.974Z,80.82
2023-02-19T15:33:57.511Z,80.71
2023-02-19T15:36:34.696Z,80.62
2023-02-19T15:39:05.172Z,80.96
2023-02-19T15:41:36.601Z,80.82
2023-02-19T15:44:30.374Z,80.89
2023-02-19T15:47:03.832Z,80.93
2023-02-19T15:49:45.087Z,81.24
2023-02-19T15:52:25.688Z,81.13
2023-02-19T15:55:01.931Z,80.99
2023-02-19T15:57:44.604Z,81.03
2023-02-19T16:00:22.376Z,81.07
2023-02-19T16:02:51.630Z,81.04
2023-02-19T16:05:28.169Z,80.94
2023-02-19T16:08:17.094Z,81.19
2023-02-19T16:10:56.756Z,80.92
2023-02-19T16:13:29.559Z,81.08
2023-02-19T16:16:04.607Z,80.95
2023-02-19T16:18:34.092Z,80.97
2023-02-19T16:21:07.257Z,81.10
2023-02-19T16:23:36.228Z,81.15
2023-02-19T16:26:05.224Z,81.22
2023-02-19T16:28:41.560Z,81.31
2023-02-19T16:31:13.776Z,81.20
2023-02-19T16:33:48.231Z,81.26
2023-02-19T16:36:37.360Z,81.07
2023-02-19T16:39:20.646Z,81.03
2023-02-19T16:42:16.529Z,81.02
2023-02-19T16:44:48.855Z,80.98
2023-02-19T16:47:29.694Z,80.91
2023-02-19T16:50:02.433Z,81.16
2023-02-19T16:52:33.392Z,81.15
2023-02-19T16:55:12.869Z,81.25
2023-02-19T16:57:41.515Z,81.34
2023-02-19T17:00:19.758Z,81.37
2023-02-19T17:02:50.381Z,81.46
2023-02-19T17:05:21.668Z,81.45
2023-02-19T17:07:51.182Z,81.61
2023-02-19T17:10:25.318Z,81.68
2023-02-19T17:12:55.872Z,81.81
2023-02-19T17:15:26.044Z,81.93
2023-02-19T17:17:54.698Z,81.67
2023-02-19T17:20:30.417Z,81.54
2023-02-19T17:22:59.281Z,81.70
2023-02-19T17:25:27.982Z,81.67
2023-02-19T17:27:59.334Z,81.48
2023-02-19T17:30:39.894Z,81.49
2023-02-19T17:33:09.737Z,81.54
2023-02-19T17:35:38.482Z,81.59
2023-02-19T17:38:09.676Z,81.47
2023-02-19T17:40:39.209Z,81.56
2023-02-19T17:43:08.786Z,81.70
2023-02-19T17:45:38.820Z,81.86
2023-02-19T17:48:07.823Z,81.86
2023-02-19T17:50:36.439Z,81.76
2023-02-19T17:53:05.070Z,81.80
2023-02-19T17:55:34.687Z,81.79
2023-02-19T17:58:03.702Z,81.69
2023-02-19T18:00:32.830Z,81.63
2023-02-19T18:03:03.168Z,81.64
2023-02-19T18:05:31.834Z,81.87
2023-02-19T18:08:00.845Z,81.87
2023-02-19T18:10:30.565Z,81.87
2023-02-19T18:12:59.458Z,81.94
2023-02-19T18:15:28.401Z,82.09
2023-02-19T18:17:58.361Z,82.20
2023-02-19T18:20:31.573Z,82.32
2023-02-19T18:23:01.065Z,82.35
2023-02-19T18:25:29.760Z,82.40
2023-02-19T18:28:00.110Z,82.66
2023-02-19T18:30:29.847Z,82.55
2023-02-19T18:33:00.326Z,82.64
2023-02-19T18:35:30.361Z,82.71
2023-02-19T18:37:59.004Z,82.65
2023-02-19T18:40:28.591Z,82.45
2023-02-19T18:42:58.860Z,82.58
2023-02-19T18:45:30.088Z,82.56
2023-02-19T18:47:58.969Z,82.59
2023-02-19T18:50:29.069Z,82.46
2023-02-19T18:52:57.698Z,82.55
2023-02-19T18:55:26.735Z,82.49
2023-02-19T18:57:56.862Z,82.37
2023-02-19T19:00:27.705Z,82.25
2023-02-19T19:02:59.536Z,82.40
2023-02-19T19:05:31.239Z,82.46
2023-02-19T19:08:01.918Z,82.32
2023-02-19T19:10:31.040Z,82.38
2023-02-19T19:12:59.805Z,82.60
2023-02-19T19:15:30.193Z,82.20
2023-02-19T19:17:59.742Z,82.11
2023-02-19T19:20:29.950Z,82.28
2023-02-19T19:22:58.693Z,82.33
2023-02-19T19:25:27.549Z,82.40
2023-02-19T19:27:57.428Z,82.33
2023-02-19T19:30:26.580Z,82.34
2023-02-19T19:33:06.538Z,82.37
2023-02-19T19:35:41.407Z,82.27
2023-02-19T19:38:15.215Z,82.46
2023-02-19T19:40:45.557Z,82.64
2023-02-19T19:43:16.479Z,82.70
2023-02-19T19:45:45.212Z,82.70
2023-02-19T19:48:14.027Z,82.84
2023-02-19T19:50:43.994Z,82.77
2023-02-19T19:53:14.907Z,82.75
2023-02-19T19:55:45.826Z,82.55
2023-02-19T19:58:14.455Z,82.41
2023-02-19T20:00:44.431Z,82.31
2023-02-19T20:03:14.146Z,82.37
2023-02-19T20:05:51.509Z,82.33
2023-02-19T20:08:24.462Z,82.10
2023-02-19T20:10:53.137Z,81.59
2023-02-19T20:13:31.881Z,81.47
2023-02-19T20:16:00.784Z,81.27
2023-02-19T20:18:30.554Z,81.14
2023-02-19T20:21:00.695Z,81.01
2023-02-19T20:23:29.363Z,80.92
2023-02-19T20:26:18.562Z,80.81
2023-02-19T20:28:47.267Z,80.92
2023-02-19T20:31:16.165Z,81.00
2023-02-19T20:33:51.217Z,80.95
2023-02-19T20:36:22.503Z,80.68
2023-02-19T20:38:52.016Z,80.57
2023-02-19T20:41:20.689Z,80.32
2023-02-19T20:43:52.466Z,80.29
2023-02-19T20:46:25.027Z,80.38
2023-02-19T20:48:54.010Z,80.45
2023-02-19T20:51:24.089Z,80.39
2023-02-19T20:53:58.441Z,80.35
2023-02-19T20:56:28.301Z,80.49
2023-02-19T20:58:57.288Z,80.37
2023-02-19T21:01:28.023Z,80.33
2023-02-19T21:03:56.700Z,80.56
2023-02-19T21:06:26.767Z,80.74
2023-02-19T21:08:55.515Z,80.68
2023-02-19T21:11:24.706Z,80.48
2023-02-19T21:13:59.204Z,80.66
2023-02-19T21:16:30.688Z,80.85
2023-02-19T21:19:00.171Z,80.96
2023-02-19T21:21:31.866Z,80.75
2023-02-19T21:24:02.170Z,80.68
2023-02-19T21:26:37.704Z,80.81
2023-02-19T21:29:08.154Z,80.96
2023-02-19T21:31:40.052Z,81.01
2023-02-19T21:34:12.177Z,80.89
2023-02-19T21:36:42.560Z,80.89
2023-02-19T21:39:13.939Z,80.91
2023-02-19T21:41:42.489Z,80.91
2023-02-19T21:44:11.104Z,81.04
2023-02-19T21:46:39.845Z,80.94
2023-02-19T21:49:08.672Z,80.84
2023-02-19T21:51:40.121Z,80.94
2023-02-19T21:54:24.797Z,80.97
2023-02-19T21:56:54.857Z,80.85
2023-02-19T21:59:24.430Z,80.80
2023-02-19T22:01:52.995Z,80.76
2023-02-19T22:04:24.580Z,80.68
2023-02-19T22:06:57.341Z,80.62
2023-02-19T22:09:27.329Z,80.59
2023-02-19T22:11:55.898Z,80.62
2023-02-19T22:14:24.535Z,80.86
2023-02-19T22:16:53.218Z,80.81
2023-02-19T22:19:21.891Z,80.66
2023-02-19T22:21:50.523Z,80.82
2023-02-19T22:24:22.906Z,80.76
2023-02-19T22:26:58.464Z,80.74
2023-02-19T22:29:27.342Z,80.60
2023-02-19T22:31:56.234Z,80.55
2023-02-19T22:34:25.059Z,80.67
2023-02-19T22:36:53.686Z,80.74
2023-02-19T22:39:25.469Z,80.74
2023-02-19T22:41:55.589Z,80.86
2023-02-19T22:44:24.537Z,80.78
2023-02-19T22:46:56.087Z,80.83
2023-02-19T22:49:25.389Z,81.14
2023-02-19T22:52:01.507Z,80.99
2023-02-19T22:54:30.389Z,81.08
2023-02-19T22:57:00.448Z,81.16
2023-02-19T22:59:29.239Z,81.10
2023-02-19T23:01:58.118Z,81.05
2023-02-19T23:04:28.039Z,80.98
2023-02-19T23:06:56.714Z,80.98
2023-02-19T23:09:28.036Z,80.72
2023-02-19T23:12:06.594Z,80.51
2023-02-19T23:14:35.494Z,80.42
2023-02-19T23:17:04.510Z,80.39
2023-02-19T23:19:33.842Z,80.32
2023-02-19T23:22:03.681Z,80.28
2023-02-19T23:24:33.063Z,80.28
2023-02-19T23:27:03.221Z,80.31
2023-02-19T23:29:31.898Z,80.29
2023-02-19T23:32:01.432Z,80.36
2023-02-19T23:34:30.236Z,80.27
2023-02-19T23:36:59.632Z,80.29
2023-02-19T23:39:28.262Z,80.09
2023-02-19T23:41:59.281Z,80.14
2023-02-19T23:44:29.350Z,80.11
2023-02-19T23:46:58.158Z,80.18
2023-02-19T23:49:26.776Z,80.11
2023-02-19T23:51:55.425Z,80.29
2023-02-19T23:54:24.058Z,80.18
2023-02-19T23:56:52.961Z,80.26
2023-02-19T23:59:21.595Z,80.24
